sensor_id;sensor_type;location;lat;lon;timestamp;pressure;altitude;pressure_sealevel;temperature;humidity
2549;BME280;1284;53.520;10.248;2023-04-28T00:01:18;101127.22;;;9.00;76.42
2549;BME280;1284;53.520;10.248;2023-04-28T00:03:43;101121.63;;;8.93;76.58
2549;BME280;1284;53.520;10.248;2023-04-28T00:06:09;101133.28;;;8.97;76.29
2549;BME280;1284;53.520;10.248;2023-04-28T00:11:01;101127.09;;;8.97;76.02
2549;BME280;1284;53.520;10.248;2023-04-28T00:13:26;101131.44;;;8.89;76.12
2549;BME280;1284;53.520;10.248;2023-04-28T00:15:52;101120.47;;;8.94;76.28
2549;BME280;1284;53.520;10.248;2023-04-28T00:18:19;101113.94;;;8.71;76.54
2549;BME280;1284;53.520;10.248;2023-04-28T00:20:45;101117.41;;;8.72;76.91
2549;BME280;1284;53.520;10.248;2023-04-28T00:23:10;101107.91;;;8.74;76.72
2549;BME280;1284;53.520;10.248;2023-04-28T00:25:35;101110.78;;;8.69;76.77
2549;BME280;1284;53.520;10.248;2023-04-28T00:28:01;101111.75;;;8.53;77.21
2549;BME280;1284;53.520;10.248;2023-04-28T00:30:28;101099.41;;;8.52;77.28
2549;BME280;1284;53.520;10.248;2023-04-28T00:32:54;101110.50;;;8.50;77.37
2549;BME280;1284;53.520;10.248;2023-04-28T00:35:20;101097.88;;;8.51;77.45
2549;BME280;1284;53.520;10.248;2023-04-28T00:37:46;101099.41;;;8.52;77.07
2549;BME280;1284;53.520;10.248;2023-04-28T00:40:11;101101.97;;;8.48;77.91
2549;BME280;1284;53.520;10.248;2023-04-28T00:42:37;101102.06;;;8.40;78.02
2549;BME280;1284;53.520;10.248;2023-04-28T00:45:03;101099.28;;;8.48;78.00
2549;BME280;1284;53.520;10.248;2023-04-28T00:47:35;101097.06;;;8.50;78.37
2549;BME280;1284;53.520;10.248;2023-04-28T00:50:03;101093.75;;;8.53;77.78
2549;BME280;1284;53.520;10.248;2023-04-28T00:55:18;101092.72;;;8.58;77.32
2549;BME280;1284;53.520;10.248;2023-04-28T00:57:44;101079.28;;;8.46;77.56
2549;BME280;1284;53.520;10.248;2023-04-28T01:00:12;101085.41;;;8.46;77.30
2549;BME280;1284;53.520;10.248;2023-04-28T01:02:39;101080.72;;;8.43;77.88
2549;BME280;1284;53.520;10.248;2023-04-28T01:05:05;101088.06;;;8.34;77.97
2549;BME280;1284;53.520;10.248;2023-04-28T01:07:31;101076.44;;;8.30;77.74
2549;BME280;1284;53.520;10.248;2023-04-28T01:09:59;101063.84;;;8.22;78.39
2549;BME280;1284;53.520;10.248;2023-04-28T01:12:29;101069.38;;;8.17;78.57
2549;BME280;1284;53.520;10.248;2023-04-28T01:14:56;101069.59;;;8.12;78.71
2549;BME280;1284;53.520;10.248;2023-04-28T01:17:21;101072.94;;;8.09;78.70
2549;BME280;1284;53.520;10.248;2023-04-28T01:19:47;101068.00;;;8.11;78.97
2549;BME280;1284;53.520;10.248;2023-04-28T01:22:13;101072.94;;;8.09;78.85
2549;BME280;1284;53.520;10.248;2023-04-28T01:24:41;101071.34;;;8.08;79.11
2549;BME280;1284;53.520;10.248;2023-04-28T01:27:08;101068.69;;;8.08;78.57
2549;BME280;1284;53.520;10.248;2023-04-28T01:29:35;101069.47;;;8.08;78.51
2549;BME280;1284;53.520;10.248;2023-04-28T01:32:00;101058.75;;;8.08;78.71
2549;BME280;1284;53.520;10.248;2023-04-28T01:34:26;101060.75;;;8.11;78.78
2549;BME280;1284;53.520;10.248;2023-04-28T01:36:54;101060.56;;;8.16;78.36
2549;BME280;1284;53.520;10.248;2023-04-28T01:39:19;101053.56;;;8.24;77.76
2549;BME280;1284;53.520;10.248;2023-04-28T01:41:45;101045.97;;;8.05;78.73
2549;BME280;1284;53.520;10.248;2023-04-28T01:44:10;101050.22;;;8.06;78.47
2549;BME280;1284;53.520;10.248;2023-04-28T01:46:37;101057.25;;;7.99;78.64
2549;BME280;1284;53.520;10.248;2023-04-28T01:49:02;101049.84;;;7.96;79.16
2549;BME280;1284;53.520;10.248;2023-04-28T01:51:28;101049.69;;;7.92;79.38
2549;BME280;1284;53.520;10.248;2023-04-28T01:53:53;101042.00;;;7.91;79.45
2549;BME280;1284;53.520;10.248;2023-04-28T01:56:23;101048.16;;;7.91;79.21
2549;BME280;1284;53.520;10.248;2023-04-28T01:58:50;101043.88;;;7.90;79.31
2549;BME280;1284;53.520;10.248;2023-04-28T02:01:16;101043.41;;;7.88;79.49
2549;BME280;1284;53.520;10.248;2023-04-28T02:03:42;101041.31;;;7.94;79.04
2549;BME280;1284;53.520;10.248;2023-04-28T02:06:07;101036.53;;;7.99;79.12
2549;BME280;1284;53.520;10.248;2023-04-28T02:08:34;101033.88;;;7.99;78.91
2549;BME280;1284;53.520;10.248;2023-04-28T02:10:59;101031.53;;;7.98;79.20
2549;BME280;1284;53.520;10.248;2023-04-28T02:13:25;101037.22;;;7.96;78.42
2549;BME280;1284;53.520;10.248;2023-04-28T02:15:51;101026.16;;;7.98;78.28
2549;BME280;1284;53.520;10.248;2023-04-28T02:18:19;101020.53;;;7.91;78.81
2549;BME280;1284;53.520;10.248;2023-04-28T02:20:44;101019.63;;;7.87;78.55
2549;BME280;1284;53.520;10.248;2023-04-28T02:23:10;101029.97;;;7.97;78.12
2549;BME280;1284;53.520;10.248;2023-04-28T02:25:35;101025.53;;;8.01;78.37
2549;BME280;1284;53.520;10.248;2023-04-28T02:28:02;101019.25;;;7.97;78.17
2549;BME280;1284;53.520;10.248;2023-04-28T02:30:28;101024.16;;;7.95;78.13
2549;BME280;1284;53.520;10.248;2023-04-28T02:32:54;101017.53;;;7.92;78.33
2549;BME280;1284;53.520;10.248;2023-04-28T02:35:20;101015.63;;;7.93;78.38
2549;BME280;1284;53.520;10.248;2023-04-28T02:37:45;101012.88;;;7.81;78.21
2549;BME280;1284;53.520;10.248;2023-04-28T02:40:11;101012.88;;;7.81;78.31
2549;BME280;1284;53.520;10.248;2023-04-28T02:42:37;101005.06;;;7.76;78.53
2549;BME280;1284;53.520;10.248;2023-04-28T02:45:02;101002.25;;;7.72;78.52
2549;BME280;1284;53.520;10.248;2023-04-28T02:47:28;101012.22;;;7.63;79.04
2549;BME280;1284;53.520;10.248;2023-04-28T02:49:53;101008.91;;;7.66;78.95
2549;BME280;1284;53.520;10.248;2023-04-28T02:52:21;101002.25;;;7.72;78.59
2549;BME280;1284;53.520;10.248;2023-04-28T02:54:47;100996.09;;;7.72;78.81
2549;BME280;1284;53.520;10.248;2023-04-28T02:57:16;100996.72;;;7.69;79.02
2549;BME280;1284;53.520;10.248;2023-04-28T02:59:42;100987.50;;;7.58;78.72
2549;BME280;1284;53.520;10.248;2023-04-28T03:02:07;100992.53;;;7.59;79.17
2549;BME280;1284;53.520;10.248;2023-04-28T03:04:33;100986.41;;;7.59;78.67
2549;BME280;1284;53.520;10.248;2023-04-28T03:06:58;100980.84;;;7.64;79.24
2549;BME280;1284;53.520;10.248;2023-04-28T03:09:24;100972.34;;;7.62;78.27
2549;BME280;1284;53.520;10.248;2023-04-28T03:11:49;100970.84;;;7.52;79.25
2549;BME280;1284;53.520;10.248;2023-04-28T03:14:15;100958.72;;;7.55;79.32
2549;BME280;1284;53.520;10.248;2023-04-28T03:16:42;100952.94;;;7.44;79.54
2549;BME280;1284;53.520;10.248;2023-04-28T03:19:07;100965.28;;;7.37;79.73
2549;BME280;1284;53.520;10.248;2023-04-28T03:21:33;100959.34;;;7.52;79.46
2549;BME280;1284;53.520;10.248;2023-04-28T03:23:58;100950.00;;;7.58;78.49
2549;BME280;1284;53.520;10.248;2023-04-28T03:26:24;100953.81;;;7.57;78.42
2549;BME280;1284;53.520;10.248;2023-04-28T03:28:51;100960.22;;;7.64;78.47
2549;BME280;1284;53.520;10.248;2023-04-28T03:31:17;100956.66;;;7.52;78.95
2549;BME280;1284;53.520;10.248;2023-04-28T03:33:43;100942.69;;;7.46;78.69
2549;BME280;1284;53.520;10.248;2023-04-28T03:36:11;100944.97;;;7.56;78.31
2549;BME280;1284;53.520;10.248;2023-04-28T03:38:37;100941.75;;;7.42;78.83
2549;BME280;1284;53.520;10.248;2023-04-28T03:41:03;100939.88;;;7.43;79.17
2549;BME280;1284;53.520;10.248;2023-04-28T03:43:28;100943.84;;;7.37;79.87
2549;BME280;1284;53.520;10.248;2023-04-28T03:46:12;100935.56;;;7.50;79.09
2549;BME280;1284;53.520;10.248;2023-04-28T03:48:38;100923.94;;;7.46;78.57
2549;BME280;1284;53.520;10.248;2023-04-28T03:51:04;100923.81;;;7.43;78.92
2549;BME280;1284;53.520;10.248;2023-04-28T03:53:30;100925.03;;;7.24;79.00
2549;BME280;1284;53.520;10.248;2023-04-28T03:55:55;100922.66;;;7.23;79.61
2549;BME280;1284;53.520;10.248;2023-04-28T03:58:25;100924.81;;;7.09;80.59
2549;BME280;1284;53.520;10.248;2023-04-28T04:00:50;100924.56;;;7.22;80.49
2549;BME280;1284;53.520;10.248;2023-04-28T04:03:16;100926.41;;;7.30;79.96
2549;BME280;1284;53.520;10.248;2023-04-28T04:05:42;100919.53;;;7.21;79.61
2549;BME280;1284;53.520;10.248;2023-04-28T04:08:08;100925.22;;;7.40;79.30
2549;BME280;1284;53.520;10.248;2023-04-28T04:10:33;100921.13;;;7.43;78.80
2549;BME280;1284;53.520;10.248;2023-04-28T04:12:59;100919.75;;;7.37;79.22
2549;BME280;1284;53.520;10.248;2023-04-28T04:15:24;100920.91;;;7.27;79.78
2549;BME280;1284;53.520;10.248;2023-04-28T04:17:51;100914.97;;;7.21;79.55
2549;BME280;1284;53.520;10.248;2023-04-28T04:20:16;100921.06;;;7.01;80.45
2549;BME280;1284;53.520;10.248;2023-04-28T04:22:43;100906.81;;;7.18;80.18
2549;BME280;1284;53.520;10.248;2023-04-28T04:25:09;100910.84;;;7.24;80.03
2549;BME280;1284;53.520;10.248;2023-04-28T04:27:34;100908.91;;;7.33;80.17
2549;BME280;1284;53.520;10.248;2023-04-28T04:30:00;100905.09;;;7.34;79.48
2549;BME280;1284;53.520;10.248;2023-04-28T04:32:26;100895.06;;;7.31;79.35
2549;BME280;1284;53.520;10.248;2023-04-28T04:34:52;100904.63;;;7.32;79.80
2549;BME280;1284;53.520;10.248;2023-04-28T04:37:17;100904.38;;;7.46;79.44
2549;BME280;1284;53.520;10.248;2023-04-28T04:39:59;100902.63;;;7.29;79.56
2549;BME280;1284;53.520;10.248;2023-04-28T04:42:24;100892.72;;;7.29;78.93
2549;BME280;1284;53.520;10.248;2023-04-28T04:45:12;100901.91;;;7.41;79.16
2549;BME280;1284;53.520;10.248;2023-04-28T04:47:39;100899.34;;;7.44;79.49
2549;BME280;1284;53.520;10.248;2023-04-28T04:50:05;100893.53;;;7.42;79.83
2549;BME280;1284;53.520;10.248;2023-04-28T04:52:31;100887.66;;;7.49;79.22
2549;BME280;1284;53.520;10.248;2023-04-28T04:54:57;100887.84;;;7.44;79.78
2549;BME280;1284;53.520;10.248;2023-04-28T04:57:23;100884.53;;;7.47;78.56
2549;BME280;1284;53.520;10.248;2023-04-28T05:00:09;100887.84;;;7.44;78.98
2549;BME280;1284;53.520;10.248;2023-04-28T05:02:36;100873.34;;;7.45;78.57
2549;BME280;1284;53.520;10.248;2023-04-28T05:05:04;100876.75;;;7.54;78.50
2549;BME280;1284;53.520;10.248;2023-04-28T05:07:30;100873.72;;;7.55;78.33
2549;BME280;1284;53.520;10.248;2023-04-28T05:09:56;100872.88;;;7.63;77.91
2549;BME280;1284;53.520;10.248;2023-04-28T05:12:22;100871.47;;;7.78;77.78
2549;BME280;1284;53.520;10.248;2023-04-28T05:14:48;100868.59;;;7.83;76.89
2549;BME280;1284;53.520;10.248;2023-04-28T05:17:14;100864.25;;;7.90;77.58
2549;BME280;1284;53.520;10.248;2023-04-28T05:19:40;100865.84;;;7.91;77.43
2549;BME280;1284;53.520;10.248;2023-04-28T05:22:06;100865.28;;;7.98;76.75
2549;BME280;1284;53.520;10.248;2023-04-28T05:24:34;100870.00;;;8.01;76.99
2549;BME280;1284;53.520;10.248;2023-04-28T05:27:00;100865.22;;;8.18;76.13
2549;BME280;1284;53.520;10.248;2023-04-28T05:29:26;100875.31;;;8.34;74.98
2549;BME280;1284;53.520;10.248;2023-04-28T05:31:52;100871.53;;;8.59;75.04
2549;BME280;1284;53.520;10.248;2023-04-28T05:34:20;100862.25;;;8.68;73.67
2549;BME280;1284;53.520;10.248;2023-04-28T05:36:46;100865.38;;;8.70;71.71
2549;BME280;1284;53.520;10.248;2023-04-28T05:39:12;100859.31;;;8.85;71.36
2549;BME280;1284;53.520;10.248;2023-04-28T05:41:39;100858.44;;;8.81;71.13
2549;BME280;1284;53.520;10.248;2023-04-28T05:44:04;100858.94;;;9.11;70.39
2549;BME280;1284;53.520;10.248;2023-04-28T05:46:33;100860.19;;;9.14;68.22
2549;BME280;1284;53.520;10.248;2023-04-28T05:48:59;100856.53;;;9.34;68.27
2549;BME280;1284;53.520;10.248;2023-04-28T05:51:28;100852.13;;;9.69;66.98
2549;BME280;1284;53.520;10.248;2023-04-28T05:53:54;100846.97;;;9.91;65.37
2549;BME280;1284;53.520;10.248;2023-04-28T05:56:20;100847.28;;;10.18;65.21
2549;BME280;1284;53.520;10.248;2023-04-28T05:58:47;100844.69;;;10.37;63.82
2549;BME280;1284;53.520;10.248;2023-04-28T06:01:14;100843.38;;;10.46;62.44
2549;BME280;1284;53.520;10.248;2023-04-28T06:03:41;100836.09;;;10.47;61.69
2549;BME280;1284;53.520;10.248;2023-04-28T06:06:07;100851.78;;;10.60;60.67
2549;BME280;1284;53.520;10.248;2023-04-28T06:08:33;100849.41;;;10.74;60.80
2549;BME280;1284;53.520;10.248;2023-04-28T06:10:58;100846.41;;;10.95;60.05
2549;BME280;1284;53.520;10.248;2023-04-28T06:13:26;100839.75;;;11.08;59.38
2549;BME280;1284;53.520;10.248;2023-04-28T06:15:51;100836.84;;;10.98;58.46
2549;BME280;1284;53.520;10.248;2023-04-28T06:18:17;100834.13;;;10.98;57.61
2549;BME280;1284;53.520;10.248;2023-04-28T06:20:43;100836.84;;;10.98;57.37
2549;BME280;1284;53.520;10.248;2023-04-28T06:23:08;100827.78;;;11.25;57.86
2549;BME280;1284;53.520;10.248;2023-04-28T06:25:40;100830.75;;;11.39;57.39
2549;BME280;1284;53.520;10.248;2023-04-28T06:28:05;100835.66;;;11.52;56.84
2549;BME280;1284;53.520;10.248;2023-04-28T06:30:33;100829.91;;;11.73;56.75
2549;BME280;1284;53.520;10.248;2023-04-28T06:33:02;100841.22;;;12.01;56.41
2549;BME280;1284;53.520;10.248;2023-04-28T06:35:27;100847.09;;;12.07;53.80
2549;BME280;1284;53.520;10.248;2023-04-28T06:37:53;100844.06;;;11.89;53.22
2549;BME280;1284;53.520;10.248;2023-04-28T06:40:19;100842.75;;;12.02;53.74
2549;BME280;1284;53.520;10.248;2023-04-28T06:42:50;100832.81;;;12.29;53.11
2549;BME280;1284;53.520;10.248;2023-04-28T06:45:21;100839.31;;;12.50;52.99
2549;BME280;1284;53.520;10.248;2023-04-28T06:47:47;100830.81;;;12.48;52.28
2549;BME280;1284;53.520;10.248;2023-04-28T06:50:12;100828.44;;;12.69;51.54
2549;BME280;1284;53.520;10.248;2023-04-28T06:52:38;100831.47;;;12.68;51.03
2549;BME280;1284;53.520;10.248;2023-04-28T06:55:07;100830.66;;;12.64;50.83
2549;BME280;1284;53.520;10.248;2023-04-28T06:57:35;100824.34;;;12.56;50.95
2549;BME280;1284;53.520;10.248;2023-04-28T07:00:02;100821.50;;;12.72;50.68
2549;BME280;1284;53.520;10.248;2023-04-28T07:02:28;100822.16;;;12.92;49.74
2549;BME280;1284;53.520;10.248;2023-04-28T07:04:54;100819.63;;;13.02;49.83
2549;BME280;1284;53.520;10.248;2023-04-28T07:07:19;100827.47;;;13.44;50.38
2549;BME280;1284;53.520;10.248;2023-04-28T07:09:45;100825.34;;;13.60;50.33
2549;BME280;1284;53.520;10.248;2023-04-28T07:12:11;100826.00;;;13.87;49.12
2549;BME280;1284;53.520;10.248;2023-04-28T07:14:36;100812.13;;;13.55;47.66
2549;BME280;1284;53.520;10.248;2023-04-28T07:17:02;100824.06;;;13.47;48.39
2549;BME280;1284;53.520;10.248;2023-04-28T07:19:27;100799.13;;;13.31;47.63
2549;BME280;1284;53.520;10.248;2023-04-28T07:21:52;100796.63;;;13.48;48.36
2549;BME280;1284;53.520;10.248;2023-04-28T07:24:21;100801.59;;;13.43;47.34
2549;BME280;1284;53.520;10.248;2023-04-28T07:26:48;100803.34;;;13.28;49.69
2549;BME280;1284;53.520;10.248;2023-04-28T07:29:13;100799.50;;;13.00;49.43
2549;BME280;1284;53.520;10.248;2023-04-28T07:31:39;100798.44;;;13.37;49.45
2549;BME280;1284;53.520;10.248;2023-04-28T07:34:04;100807.94;;;13.57;49.03
2549;BME280;1284;53.520;10.248;2023-04-28T07:36:30;100793.44;;;13.76;48.54
2549;BME280;1284;53.520;10.248;2023-04-28T07:38:59;100810.03;;;14.15;47.81
2549;BME280;1284;53.520;10.248;2023-04-28T07:41:28;100794.69;;;14.29;47.50
2549;BME280;1284;53.520;10.248;2023-04-28T07:43:54;100796.81;;;14.57;46.86
2549;BME280;1284;53.520;10.248;2023-04-28T07:46:19;100792.72;;;14.88;48.32
2549;BME280;1284;53.520;10.248;2023-04-28T07:48:45;100794.00;;;15.11;46.85
2549;BME280;1284;53.520;10.248;2023-04-28T07:51:10;100797.97;;;15.38;45.64
2549;BME280;1284;53.520;10.248;2023-04-28T07:53:36;100798.03;;;15.46;46.03
2549;BME280;1284;53.520;10.248;2023-04-28T07:56:02;100792.84;;;15.16;45.60
2549;BME280;1284;53.520;10.248;2023-04-28T07:58:27;100788.56;;;14.39;46.28
2549;BME280;1284;53.520;10.248;2023-04-28T08:00:56;100781.09;;;14.91;46.36
2549;BME280;1284;53.520;10.248;2023-04-28T08:03:21;100783.47;;;14.96;46.24
2549;BME280;1284;53.520;10.248;2023-04-28T08:05:47;100788.66;;;15.36;46.81
2549;BME280;1284;53.520;10.248;2023-04-28T08:08:12;100780.63;;;15.71;45.14
2549;BME280;1284;53.520;10.248;2023-04-28T08:10:38;100777.53;;;15.80;45.86
2549;BME280;1284;53.520;10.248;2023-04-28T08:13:09;100783.38;;;15.96;43.24
2549;BME280;1284;53.520;10.248;2023-04-28T08:15:35;100783.34;;;15.71;43.27
2549;BME280;1284;53.520;10.248;2023-04-28T08:18:00;100776.69;;;15.44;43.59
2549;BME280;1284;53.520;10.248;2023-04-28T08:20:26;100783.34;;;15.85;43.27
2549;BME280;1284;53.520;10.248;2023-04-28T08:22:51;100782.97;;;15.90;43.81
2549;BME280;1284;53.520;10.248;2023-04-28T08:25:17;100779.88;;;15.92;43.47
2549;BME280;1284;53.520;10.248;2023-04-28T08:27:42;100771.31;;;15.93;43.53
2549;BME280;1284;53.520;10.248;2023-04-28T08:30:08;100771.31;;;16.07;43.42
2549;BME280;1284;53.520;10.248;2023-04-28T08:32:34;100776.75;;;15.86;43.35
2549;BME280;1284;53.520;10.248;2023-04-28T08:34:59;100760.84;;;15.95;43.86
2549;BME280;1284;53.520;10.248;2023-04-28T08:37:26;100772.88;;;16.01;43.88
2549;BME280;1284;53.520;10.248;2023-04-28T08:39:52;100782.97;;;16.11;43.46
2549;BME280;1284;53.520;10.248;2023-04-28T08:42:28;100778.69;;;16.07;43.67
2549;BME280;1284;53.520;10.248;2023-04-28T08:44:55;100771.72;;;16.27;42.77
2549;BME280;1284;53.520;10.248;2023-04-28T08:47:28;100768.97;;;16.31;43.51
2549;BME280;1284;53.520;10.248;2023-04-28T08:50:02;100773.63;;;16.41;43.07
2549;BME280;1284;53.520;10.248;2023-04-28T08:52:28;100770.50;;;16.46;42.78
2549;BME280;1284;53.520;10.248;2023-04-28T08:54:55;100762.34;;;16.46;43.04
2549;BME280;1284;53.520;10.248;2023-04-28T08:57:27;100765.06;;;16.63;42.05
2549;BME280;1284;53.520;10.248;2023-04-28T08:59:57;100763.16;;;16.25;42.90
2549;BME280;1284;53.520;10.248;2023-04-28T09:02:23;100756.56;;;16.30;42.85
2549;BME280;1284;53.520;10.248;2023-04-28T09:04:48;100751.91;;;16.23;42.78
2549;BME280;1284;53.520;10.248;2023-04-28T09:07:14;100753.84;;;16.33;43.00
2549;BME280;1284;53.520;10.248;2023-04-28T09:09:39;100742.59;;;16.49;42.82
2549;BME280;1284;53.520;10.248;2023-04-28T09:12:06;100745.69;;;16.30;42.72
2549;BME280;1284;53.520;10.248;2023-04-28T09:14:33;100745.25;;;16.59;43.13
2549;BME280;1284;53.520;10.248;2023-04-28T09:17:00;100733.28;;;16.21;42.52
2549;BME280;1284;53.520;10.248;2023-04-28T09:19:32;100730.19;;;16.09;43.50
2549;BME280;1284;53.520;10.248;2023-04-28T09:21:58;100728.59;;;16.36;43.32
2549;BME280;1284;53.520;10.248;2023-04-28T09:24:28;100730.16;;;16.34;42.85
2549;BME280;1284;53.520;10.248;2023-04-28T09:26:55;100722.00;;;16.12;43.88
2549;BME280;1284;53.520;10.248;2023-04-28T09:29:20;100724.34;;;16.10;43.26
2549;BME280;1284;53.520;10.248;2023-04-28T09:31:48;100721.25;;;16.15;44.59
2549;BME280;1284;53.520;10.248;2023-04-28T09:34:14;100714.69;;;16.02;43.69
2549;BME280;1284;53.520;10.248;2023-04-28T09:36:39;100722.41;;;16.14;43.87
2549;BME280;1284;53.520;10.248;2023-04-28T09:39:05;100721.28;;;16.08;42.01
2549;BME280;1284;53.520;10.248;2023-04-28T09:41:37;100710.69;;;16.46;42.75
2549;BME280;1284;53.520;10.248;2023-04-28T09:44:15;100718.84;;;16.60;42.61
2549;BME280;1284;53.520;10.248;2023-04-28T09:46:42;100712.53;;;16.87;42.88
2549;BME280;1284;53.520;10.248;2023-04-28T09:49:09;100715.13;;;17.12;42.87
2549;BME280;1284;53.520;10.248;2023-04-28T09:51:34;100711.94;;;17.24;41.76
2549;BME280;1284;53.520;10.248;2023-04-28T09:54:01;100713.84;;;17.31;42.38
2549;BME280;1284;53.520;10.248;2023-04-28T09:56:27;100714.69;;;17.24;42.01
2549;BME280;1284;53.520;10.248;2023-04-28T09:58:56;100700.25;;;17.27;42.57
2549;BME280;1284;53.520;10.248;2023-04-28T10:01:23;100698.25;;;17.35;42.19
2549;BME280;1284;53.520;10.248;2023-04-28T10:03:49;100696.19;;;17.56;42.63
2549;BME280;1284;53.520;10.248;2023-04-28T10:06:17;100706.63;;;17.68;41.99
2549;BME280;1284;53.520;10.248;2023-04-28T10:08:43;100701.63;;;17.60;41.06
2549;BME280;1284;53.520;10.248;2023-04-28T10:11:13;100687.03;;;17.29;41.54
2549;BME280;1284;53.520;10.248;2023-04-28T10:13:41;100682.13;;;17.65;42.01
2549;BME280;1284;53.520;10.248;2023-04-28T10:16:09;100683.69;;;17.62;41.42
2549;BME280;1284;53.520;10.248;2023-04-28T10:18:35;100687.63;;;17.61;41.51
2549;BME280;1284;53.520;10.248;2023-04-28T10:21:02;100678.03;;;17.87;41.47
2549;BME280;1284;53.520;10.248;2023-04-28T10:29:24;100670.88;;;18.03;41.01
2549;BME280;1284;53.520;10.248;2023-04-28T10:32:16;100657.25;;;18.03;41.15
2549;BME280;1284;53.520;10.248;2023-04-28T10:34:41;100657.25;;;17.63;41.55
2549;BME280;1284;53.520;10.248;2023-04-28T10:37:07;100647.47;;;18.06;40.65
2549;BME280;1284;53.520;10.248;2023-04-28T10:39:33;100659.25;;;17.99;41.45
2549;BME280;1284;53.520;10.248;2023-04-28T10:41:59;100643.41;;;18.25;40.93
2549;BME280;1284;53.520;10.248;2023-04-28T10:47:06;100638.63;;;18.32;41.21
2549;BME280;1284;53.520;10.248;2023-04-28T10:50:09;100642.91;;;18.33;41.49
2549;BME280;1284;53.520;10.248;2023-04-28T10:55:29;100636.81;;;18.56;41.57
2549;BME280;1284;53.520;10.248;2023-04-28T11:00:48;100634.91;;;19.10;40.05
2549;BME280;1284;53.520;10.248;2023-04-28T11:08:53;100633.53;;;18.98;39.96
2549;BME280;1284;53.520;10.248;2023-04-28T11:11:24;100631.25;;;18.63;39.94
2549;BME280;1284;53.520;10.248;2023-04-28T11:16:48;100628.78;;;18.42;40.73
2549;BME280;1284;53.520;10.248;2023-04-28T11:19:17;100631.97;;;18.37;41.10
2549;BME280;1284;53.520;10.248;2023-04-28T11:21:43;100621.97;;;18.57;41.48
2549;BME280;1284;53.520;10.248;2023-04-28T11:24:09;100621.88;;;18.67;41.29
2549;BME280;1284;53.520;10.248;2023-04-28T11:26:37;100621.81;;;18.71;40.28
2549;BME280;1284;53.520;10.248;2023-04-28T11:29:03;100619.56;;;18.66;40.17
2549;BME280;1284;53.520;10.248;2023-04-28T11:31:29;100614.94;;;18.59;40.70
2549;BME280;1284;53.520;10.248;2023-04-28T11:34:05;100616.47;;;18.64;40.66
2549;BME280;1284;53.520;10.248;2023-04-28T11:36:33;100609.31;;;18.73;40.39
2549;BME280;1284;53.520;10.248;2023-04-28T11:39:04;100618.25;;;18.74;40.00
2549;BME280;1284;53.520;10.248;2023-04-28T11:41:36;100612.28;;;18.82;40.66
2549;BME280;1284;53.520;10.248;2023-04-28T11:44:15;100610.16;;;18.33;40.53
2549;BME280;1284;53.520;10.248;2023-04-28T11:46:51;100598.63;;;18.56;41.27
2549;BME280;1284;53.520;10.248;2023-04-28T11:49:23;100592.81;;;18.80;41.29
2549;BME280;1284;53.520;10.248;2023-04-28T11:51:50;100600.94;;;18.24;40.96
2549;BME280;1284;53.520;10.248;2023-04-28T11:54:20;100593.63;;;18.17;40.93
2549;BME280;1284;53.520;10.248;2023-04-28T11:56:46;100595.91;;;18.56;41.12
2549;BME280;1284;53.520;10.248;2023-04-28T11:59:13;100589.97;;;18.31;40.91
2549;BME280;1284;53.520;10.248;2023-04-28T12:01:52;100594.16;;;18.39;41.20
2549;BME280;1284;53.520;10.248;2023-04-28T12:04:32;100586.69;;;18.46;41.34
2549;BME280;1284;53.520;10.248;2023-04-28T12:07:07;100575.97;;;18.59;41.75
2549;BME280;1284;53.520;10.248;2023-04-28T12:12:09;100580.22;;;18.30;41.21
2549;BME280;1284;53.520;10.248;2023-04-28T12:14:55;100577.97;;;18.25;40.66
2549;BME280;1284;53.520;10.248;2023-04-28T12:17:32;100582.88;;;18.37;41.71
2549;BME280;1284;53.520;10.248;2023-04-28T12:20:00;100579.97;;;18.51;41.33
2549;BME280;1284;53.520;10.248;2023-04-28T12:22:26;100566.22;;;18.28;41.11
2549;BME280;1284;53.520;10.248;2023-04-28T12:27:31;100576.03;;;18.22;41.42
2549;BME280;1284;53.520;10.248;2023-04-28T12:29:56;100566.28;;;18.24;41.65
2549;BME280;1284;53.520;10.248;2023-04-28T12:32:40;100560.13;;;18.17;42.24
2549;BME280;1284;53.520;10.248;2023-04-28T12:35:11;100557.88;;;18.12;42.20
2549;BME280;1284;53.520;10.248;2023-04-28T12:37:44;100553.69;;;18.34;41.46
2549;BME280;1284;53.520;10.248;2023-04-28T12:40:14;100542.94;;;18.20;41.86
2549;BME280;1284;53.520;10.248;2023-04-28T12:42:43;100545.13;;;18.32;41.26
2549;BME280;1284;53.520;10.248;2023-04-28T12:45:31;100548.75;;;18.22;41.94
2549;BME280;1284;53.520;10.248;2023-04-28T12:48:01;100542.69;;;18.11;42.02
2549;BME280;1284;53.520;10.248;2023-04-28T12:50:29;100527.41;;;18.17;42.21
2549;BME280;1284;53.520;10.248;2023-04-28T12:53:02;100527.63;;;18.29;42.67
2549;BME280;1284;53.520;10.248;2023-04-28T12:55:32;100525.94;;;18.42;41.74
2549;BME280;1284;53.520;10.248;2023-04-28T12:58:29;100528.81;;;18.28;42.33
2549;BME280;1284;53.520;10.248;2023-04-28T13:00:58;100523.72;;;17.66;42.83
2549;BME280;1284;53.520;10.248;2023-04-28T13:06:45;100505.53;;;17.56;43.45
2549;BME280;1284;53.520;10.248;2023-04-28T13:09:50;100504.50;;;17.80;43.14
2549;BME280;1284;53.520;10.248;2023-04-28T13:12:18;100509.78;;;17.94;43.69
2549;BME280;1284;53.520;10.248;2023-04-28T13:14:49;100494.19;;;17.95;43.20
2549;BME280;1284;53.520;10.248;2023-04-28T13:17:16;100501.91;;;18.03;43.18
2549;BME280;1284;53.520;10.248;2023-04-28T13:19:42;100498.19;;;17.87;43.51
2549;BME280;1284;53.520;10.248;2023-04-28T13:22:09;100499.22;;;18.00;43.71
2549;BME280;1284;53.520;10.248;2023-04-28T13:24:37;100499.75;;;18.18;42.74
2549;BME280;1284;53.520;10.248;2023-04-28T13:27:03;100496.16;;;18.25;43.66
2549;BME280;1284;53.520;10.248;2023-04-28T13:29:29;100497.63;;;18.33;43.96
2549;BME280;1284;53.520;10.248;2023-04-28T13:34:40;100498.69;;;18.09;43.24
2549;BME280;1284;53.520;10.248;2023-04-28T13:37:05;100501.00;;;18.14;43.00
2549;BME280;1284;53.520;10.248;2023-04-28T13:39:31;100490.34;;;18.23;43.14
2549;BME280;1284;53.520;10.248;2023-04-28T13:41:57;100481.44;;;18.19;42.82
2549;BME280;1284;53.520;10.248;2023-04-28T13:44:22;100476.03;;;18.15;43.28
2549;BME280;1284;53.520;10.248;2023-04-28T13:46:48;100475.00;;;18.06;43.30